createdAt,value
2017-10-29T00:04:56.465Z,15.60
2017-10-29T00:09:58.360Z,15.62
2017-10-29T00:15:00.262Z,15.58
2017-10-29T00:20:02.160Z,15.55
2017-10-29T00:25:04.076Z,15.58
2017-10-29T00:30:06.866Z,15.42
2017-10-29T00:35:09.611Z,15.30
2017-10-29T00:40:11.490Z,15.26
2017-10-29T00:45:13.424Z,15.22
2017-10-29T00:50:15.322Z,15.28
2017-10-29T00:55:17.230Z,15.35
2017-10-29T01:00:19.225Z,15.42
2017-10-29T01:05:21.156Z,15.42
2017-10-29T01:10:23.079Z,15.55
2017-10-29T01:15:25.790Z,15.56
2017-10-29T01:20:27.711Z,15.43
2017-10-29T01:25:30.451Z,15.33
2017-10-29T01:30:32.371Z,15.24
2017-10-29T01:35:34.331Z,15.24
2017-10-29T01:40:36.289Z,15.07
2017-10-29T01:45:38.200Z,15.14
2017-10-29T01:50:40.099Z,14.96
2017-10-29T01:55:42.018Z,14.94
2017-10-29T02:00:43.906Z,14.86
2017-10-29T02:05:45.796Z,14.87
2017-10-29T02:10:47.739Z,14.96
2017-10-29T02:15:49.662Z,15.11
2017-10-29T02:20:52.334Z,15.05
2017-10-29T02:25:54.262Z,15.19
2017-10-29T02:30:56.174Z,14.93
2017-10-29T02:35:58.079Z,14.59
2017-10-29T02:41:00.929Z,14.28
2017-10-29T02:46:02.858Z,14.05
2017-10-29T02:51:04.820Z,13.93
2017-10-29T02:56:07.467Z,13.83
2017-10-29T03:01:09.377Z,13.87
2017-10-29T03:06:11.380Z,13.84
2017-10-29T03:11:13.356Z,13.85
2017-10-29T03:16:16.019Z,13.83
2017-10-29T03:21:17.951Z,13.93
2017-10-29T03:26:19.885Z,13.93
2017-10-29T03:31:22.552Z,13.58
2017-10-29T03:36:24.476Z,13.46
2017-10-29T03:41:26.402Z,13.31
2017-10-29T03:46:28.355Z,13.33
2017-10-29T03:51:30.296Z,13.25
2017-10-29T03:56:32.245Z,12.85
2017-10-29T04:01:34.150Z,12.59
2017-10-29T04:06:36.096Z,12.47
2017-10-29T04:11:38.019Z,12.40
2017-10-29T04:16:39.935Z,12.49
2017-10-29T04:21:42.582Z,12.70
2017-10-29T04:26:44.524Z,12.84
2017-10-29T04:31:46.471Z,12.75
2017-10-29T04:36:49.264Z,12.69
2017-10-29T04:41:51.215Z,12.73
2017-10-29T04:46:53.155Z,12.82
2017-10-29T04:51:55.087Z,12.78
2017-10-29T04:56:57.004Z,12.59
2017-10-29T05:01:59.667Z,12.35
2017-10-29T05:07:01.608Z,12.35
2017-10-29T05:12:03.490Z,12.38
2017-10-29T05:17:05.403Z,12.38
2017-10-29T05:22:07.308Z,12.39
2017-10-29T05:27:09.256Z,12.25
2017-10-29T05:32:11.186Z,12.29
2017-10-29T05:37:13.112Z,12.17
2017-10-29T05:42:15.088Z,12.20
2017-10-29T05:47:17.062Z,12.17
2017-10-29T05:52:19.793Z,12.22
2017-10-29T05:57:21.764Z,12.17
2017-10-29T06:02:28.393Z,12.42
2017-10-29T06:07:32.392Z,12.32
2017-10-29T06:12:35.319Z,12.33
2017-10-29T06:17:37.549Z,12.37
2017-10-29T06:22:39.642Z,12.33
2017-10-29T06:27:41.914Z,12.29
2017-10-29T06:32:44.614Z,12.38
2017-10-29T06:37:46.517Z,12.40
2017-10-29T06:42:49.184Z,12.34
2017-10-29T06:47:51.206Z,12.26
2017-10-29T06:52:53.149Z,12.32
2017-10-29T06:57:55.932Z,12.37
2017-10-29T07:02:57.880Z,12.40
2017-10-29T07:07:59.842Z,12.47
2017-10-29T07:13:02.013Z,12.58
2017-10-29T07:18:04.326Z,12.83
2017-10-29T07:23:07.029Z,12.89
2017-10-29T07:28:09.077Z,13.06
2017-10-29T07:33:11.039Z,13.11
2017-10-29T07:38:13.766Z,13.16
2017-10-29T07:43:16.468Z,12.85
2017-10-29T07:48:18.436Z,12.88
2017-10-29T07:53:20.378Z,13.24
2017-10-29T07:58:22.937Z,13.11
2017-10-29T08:03:28.189Z,13.12
2017-10-29T08:08:30.899Z,13.18
2017-10-29T08:13:32.974Z,13.48
2017-10-29T08:18:35.017Z,13.29
2017-10-29T08:23:38.280Z,13.13
2017-10-29T08:28:41.877Z,13.21
2017-10-29T08:33:43.926Z,13.44
2017-10-29T08:38:45.857Z,13.56
2017-10-29T08:43:47.804Z,13.58
2017-10-29T08:48:50.479Z,13.74
2017-10-29T08:53:52.416Z,13.98
2017-10-29T08:58:54.362Z,13.71
2017-10-29T09:03:56.405Z,13.91
2017-10-29T09:08:58.355Z,14.18
2017-10-29T09:14:01.184Z,14.12
2017-10-29T09:19:03.890Z,14.11
2017-10-29T09:24:05.894Z,13.80
2017-10-29T09:29:07.828Z,13.72
2017-10-29T09:34:09.757Z,13.39
2017-10-29T09:39:11.677Z,13.30
2017-10-29T09:44:13.592Z,13.53
2017-10-29T09:49:15.528Z,13.93
2017-10-29T09:54:18.193Z,13.66
2017-10-29T09:59:20.156Z,13.60
2017-10-29T10:04:22.829Z,13.41
2017-10-29T10:09:24.784Z,13.38
2017-10-29T10:14:27.438Z,13.77
2017-10-29T10:19:29.369Z,13.62
2017-10-29T10:24:31.388Z,13.83
2017-10-29T10:29:34.114Z,13.98
2017-10-29T10:34:37.557Z,14.57
2017-10-29T10:39:39.702Z,14.77
2017-10-29T10:44:41.893Z,14.48
2017-10-29T10:49:44.100Z,14.17
2017-10-29T10:54:46.496Z,14.15
2017-10-29T10:59:49.794Z,14.04
2017-10-29T11:04:52.683Z,14.17
2017-10-29T11:09:55.297Z,14.33
2017-10-29T11:15:01.374Z,14.56
2017-10-29T11:20:04.095Z,14.64
2017-10-29T11:25:09.478Z,14.73
2017-10-29T11:30:15.804Z,14.46
2017-10-29T11:35:23.556Z,14.19
2017-10-29T11:40:31.173Z,14.35
2017-10-29T11:45:33.819Z,14.27
2017-10-29T11:50:35.736Z,14.44
2017-10-29T11:55:39.586Z,14.59
2017-10-29T12:00:45.457Z,14.58
2017-10-29T12:05:52.894Z,14.93
2017-10-29T12:10:58.908Z,15.13
2017-10-29T12:16:06.805Z,14.06
2017-10-29T12:21:10.825Z,12.88
2017-10-29T12:26:17.490Z,12.79
2017-10-29T12:31:25.072Z,13.10
2017-10-29T12:36:27.039Z,13.26
2017-10-29T12:41:29.032Z,13.57
2017-10-29T12:46:33.416Z,14.13
2017-10-29T12:51:37.164Z,14.45
2017-10-29T12:56:39.294Z,14.88
2017-10-29T13:01:41.235Z,15.17
2017-10-29T13:06:43.138Z,15.39
2017-10-29T13:11:45.027Z,15.39
2017-10-29T13:16:46.929Z,15.44
2017-10-29T13:21:49.760Z,15.24
2017-10-29T13:26:51.697Z,13.23
2017-10-29T13:31:54.310Z,11.83
2017-10-29T13:36:56.949Z,11.25
2017-10-29T13:41:58.908Z,11.20
2017-10-29T13:47:00.819Z,11.13
2017-10-29T13:52:02.788Z,11.28
2017-10-29T13:57:04.694Z,11.67
2017-10-29T14:02:06.842Z,11.74
2017-10-29T14:07:08.755Z,11.89
2017-10-29T14:12:11.557Z,11.78
2017-10-29T14:17:13.467Z,11.75
2017-10-29T14:22:15.376Z,11.79
2017-10-29T14:27:17.295Z,11.84
2017-10-29T14:32:19.967Z,11.92
2017-10-29T14:37:21.990Z,12.19
2017-10-29T14:42:23.953Z,12.32
2017-10-29T14:47:25.940Z,12.41
2017-10-29T14:52:27.964Z,12.70
2017-10-29T14:57:29.871Z,12.94
2017-10-29T15:02:31.865Z,13.26
2017-10-29T15:07:33.787Z,13.22
2017-10-29T15:12:35.735Z,12.95
2017-10-29T15:17:37.796Z,12.95
2017-10-29T15:22:39.745Z,12.67
2017-10-29T15:27:41.836Z,12.61
2017-10-29T15:32:44.531Z,12.51
2017-10-29T15:37:46.500Z,12.27
2017-10-29T15:42:53.743Z,12.11
2017-10-29T15:47:56.079Z,12.12
2017-10-29T15:52:59.746Z,12.03
2017-10-29T15:58:01.880Z,12.01
2017-10-29T16:03:03.853Z,12.10
2017-10-29T16:08:05.840Z,12.16
2017-10-29T16:13:07.812Z,12.34
2017-10-29T16:18:09.965Z,12.28
2017-10-29T16:23:11.891Z,12.25
2017-10-29T16:28:14.165Z,12.24
2017-10-29T16:33:16.130Z,12.22
2017-10-29T16:38:18.097Z,12.09
2017-10-29T16:43:20.084Z,12.08
2017-10-29T16:48:22.091Z,11.86
2017-10-29T16:53:24.126Z,11.73
2017-10-29T16:58:26.881Z,11.70
2017-10-29T17:03:28.812Z,11.61
2017-10-29T17:08:30.864Z,11.61
2017-10-29T17:13:33.505Z,11.57
2017-10-29T17:18:35.502Z,11.48
2017-10-29T17:23:37.423Z,11.56
2017-10-29T17:28:39.513Z,11.45
2017-10-29T17:33:41.619Z,11.45
2017-10-29T17:38:43.582Z,11.41
2017-10-29T17:43:45.620Z,11.42
2017-10-29T17:48:50.263Z,11.39
2017-10-29T17:53:54.281Z,11.39
2017-10-29T17:59:05.838Z,11.39
2017-10-29T18:04:08.494Z,11.40
2017-10-29T18:09:10.536Z,11.46
2017-10-29T18:14:12.469Z,11.37
2017-10-29T18:19:14.541Z,11.39
2017-10-29T18:24:16.500Z,11.29
2017-10-29T18:29:19.187Z,11.28
2017-10-29T18:34:21.133Z,11.15
2017-10-29T18:39:23.031Z,11.06
2017-10-29T18:49:35.315Z,11.17
2017-10-29T18:54:41.535Z,11.12
2017-10-29T18:59:48.750Z,11.14
2017-10-29T19:04:52.068Z,11.16
2017-10-29T19:09:54.870Z,11.12
2017-10-29T19:14:57.931Z,11.15
2017-10-29T19:19:59.952Z,11.09
2017-10-29T19:25:08.316Z,11.14
2017-10-29T19:30:10.416Z,11.15
2017-10-29T19:35:12.431Z,11.18
2017-10-29T19:40:20.132Z,11.35
2017-10-29T19:45:22.426Z,11.42
2017-10-29T19:50:24.454Z,11.33
2017-10-29T19:55:26.496Z,11.27
2017-10-29T20:00:29.183Z,11.17
2017-10-29T20:05:38.079Z,11.00
2017-10-29T20:10:40.746Z,10.93
2017-10-29T20:15:44.389Z,10.96
2017-10-29T20:20:47.103Z,11.00
2017-10-29T20:25:49.151Z,10.79
2017-10-29T20:30:51.677Z,10.64
2017-10-29T20:35:53.736Z,10.88
2017-10-29T20:40:55.840Z,10.64
2017-10-29T20:46:02.451Z,10.97
2017-10-29T20:51:04.719Z,11.03
2017-10-29T20:56:07.681Z,11.04
2017-10-29T21:01:10.656Z,10.86
2017-10-29T21:06:13.458Z,10.90
2017-10-29T21:11:16.139Z,10.84
2017-10-29T21:16:18.444Z,10.80
2017-10-29T21:21:21.814Z,10.72
2017-10-29T21:26:24.092Z,10.70
2017-10-29T21:31:27.230Z,10.88
2017-10-29T21:36:29.609Z,11.02
2017-10-29T21:41:31.707Z,10.88
2017-10-29T21:46:33.728Z,10.96
2017-10-29T21:51:35.802Z,10.86
2017-10-29T21:56:37.911Z,10.86
2017-10-29T22:01:40.865Z,10.86
2017-10-29T22:06:43.183Z,10.71
2017-10-29T22:11:45.198Z,10.66
2017-10-29T22:16:47.383Z,10.53
2017-10-29T22:21:53.266Z,10.59
2017-10-29T22:26:55.322Z,10.58
2017-10-29T22:31:58.131Z,10.54
2017-10-29T22:37:00.286Z,10.49
2017-10-29T22:42:02.412Z,10.43
2017-10-29T22:47:04.645Z,10.61
2017-10-29T22:52:06.909Z,10.74
2017-10-29T22:57:09.621Z,10.85
2017-10-29T23:02:12.468Z,10.76
2017-10-29T23:07:20.358Z,10.68
2017-10-29T23:12:22.734Z,10.67
2017-10-29T23:17:25.639Z,10.79
2017-10-29T23:22:27.661Z,10.69
2017-10-29T23:27:30.464Z,10.54
2017-10-29T23:32:32.487Z,10.64
2017-10-29T23:37:35.300Z,10.77
2017-10-29T23:42:39.327Z,10.66
2017-10-29T23:47:42.219Z,10.51
2017-10-29T23:52:45.061Z,10.44
2017-10-29T23:57:48.540Z,10.51
